15:32
Airports
History
Links
Donate
Help keep this website running!
PayPal
Bitcoin
This page is community maintained. The information is intended for PC simulator navigation or reference.
Always use approved charts for navigation.
CYXC
CANADIAN ROCKIES INTL
CANADIAN ROCKIES INTL (CYXC)
Cranbrook, British Columbia, Canada
(C)
Lat/Lng:49° 36' 43.64" N / 115° 46' 55.4" W
49.612121 / -115.782055
Elevation:3084'ft / 940mMSL
ID / ICAO:CYXC
Runways:1
Longest:16-34
Asphalt 2,430m / 7,973ft
Controlled:Yes
METAR15:00 GMT 2018-02-19
Altimeter: 30.05
Visibility: 25.0 statute miles
Wind: 4 knots (from 210°)
Temp: -24°c / -11°f
Humidity: 76.0%

METAR: CYXC 191500Z 21004KT 25SM FEW050 SCT140 BKN200 M24/M27 A3005 RMK SF1AC2CI3 FROIN SLP267

(Powered by phpweather)
Airport Radio Frequencies
Tower: 122.3
Nearby VORs <50NM
Nearby NDBs
Runway 16 / 34
Dimensions:2430.1 x 45.7m 7973' x 150'ft
Surface:Asphalt
Edge Lights:High intensity
Runway 16 [A]Runway 34 [B]
Heading:179°TH 359°TH
Lat:
Lng:
49° 37' 23.09"N
115° 46' 56.29"W
49° 36' 4.18"N
115° 46' 54.5"W
ALS:SSALRODALS
User Notes and Comments
49° 36' 43.64" N / 115° 46' 55.4" W
Distance To
Airport ID:
Nearby Airports
4 Elko 36.4 NM
BE2 SE 128°
(U) SPARWOOD ELK VALLEY 43.0 NM
CYSW ENE 69°
4 Crawford Bay 46.4 NM
AR2 W 274°
(U) FAIRMONT HOT SPRINGS 49.9 NM
CYCZ N 355°
(U) ART SUTCLIFFE FLD 51.2 NM
CAJ3 SW 219°
4 Eckhart Intl 53.8 NM
1S1 SW 217°
(U) Eureka 54.6 NM
88M SE 144°
VFR Chart
Flight Planning at SkyVector.com